sensor_id;sensor_type;location;lat;lon;timestamp;P1;durP1;ratioP1;P2;durP2;ratioP2
43793;SDS011;29414;44.798;20.366;2022-10-15T00:02:44;11.60;;;8.10;;
43793;SDS011;29414;44.798;20.366;2022-10-15T00:06:44;13.75;;;7.60;;
43793;SDS011;29414;44.798;20.366;2022-10-15T00:10:45;12.32;;;8.13;;
43793;SDS011;29414;44.798;20.366;2022-10-15T00:14:45;11.23;;;8.75;;
43793;SDS011;29414;44.798;20.366;2022-10-15T00:18:45;11.20;;;7.93;;
43793;SDS011;29414;44.798;20.366;2022-10-15T00:22:46;13.32;;;8.77;;
43793;SDS011;29414;44.798;20.366;2022-10-15T00:26:46;15.73;;;9.32;;
43793;SDS011;29414;44.798;20.366;2022-10-15T00:30:46;13.73;;;7.77;;
43793;SDS011;29414;44.798;20.366;2022-10-15T00:34:47;11.15;;;8.10;;
43793;SDS011;29414;44.798;20.366;2022-10-15T00:38:47;11.98;;;8.15;;
43793;SDS011;29414;44.798;20.366;2022-10-15T00:42:48;16.05;;;9.75;;
43793;SDS011;29414;44.798;20.366;2022-10-15T00:46:49;12.82;;;8.93;;
43793;SDS011;29414;44.798;20.366;2022-10-15T00:50:51;9.25;;;8.30;;
43793;SDS011;29414;44.798;20.366;2022-10-15T00:54:56;13.30;;;9.23;;
43793;SDS011;29414;44.798;20.366;2022-10-15T00:58:58;14.93;;;8.48;;
43793;SDS011;29414;44.798;20.366;2022-10-15T01:02:59;12.27;;;9.03;;
43793;SDS011;29414;44.798;20.366;2022-10-15T01:06:59;11.07;;;9.27;;
43793;SDS011;29414;44.798;20.366;2022-10-15T01:11:14;13.73;;;9.50;;
43793;SDS011;29414;44.798;20.366;2022-10-15T01:27:42;12.73;;;9.13;;
43793;SDS011;29414;44.798;20.366;2022-10-15T01:31:49;11.23;;;8.83;;
43793;SDS011;29414;44.798;20.366;2022-10-15T01:39:57;11.98;;;9.08;;
43793;SDS011;29414;44.798;20.366;2022-10-15T01:44:33;10.52;;;8.07;;
43793;SDS011;29414;44.798;20.366;2022-10-15T01:48:25;10.73;;;8.20;;
43793;SDS011;29414;44.798;20.366;2022-10-15T01:52:27;12.02;;;8.52;;
43793;SDS011;29414;44.798;20.366;2022-10-15T01:56:28;10.27;;;7.85;;
43793;SDS011;29414;44.798;20.366;2022-10-15T02:00:30;14.87;;;8.97;;
43793;SDS011;29414;44.798;20.366;2022-10-15T02:04:30;14.02;;;8.40;;
43793;SDS011;29414;44.798;20.366;2022-10-15T02:09:05;10.97;;;7.17;;
43793;SDS011;29414;44.798;20.366;2022-10-15T02:13:13;15.05;;;7.93;;
43793;SDS011;29414;44.798;20.366;2022-10-15T02:17:19;11.87;;;8.50;;
43793;SDS011;29414;44.798;20.366;2022-10-15T02:25:36;14.73;;;8.67;;
43793;SDS011;29414;44.798;20.366;2022-10-15T02:29:38;13.03;;;8.47;;
43793;SDS011;29414;44.798;20.366;2022-10-15T02:33:40;14.07;;;8.33;;
43793;SDS011;29414;44.798;20.366;2022-10-15T02:37:42;11.67;;;8.73;;
43793;SDS011;29414;44.798;20.366;2022-10-15T02:41:43;11.60;;;8.63;;
43793;SDS011;29414;44.798;20.366;2022-10-15T02:45:44;15.97;;;8.73;;
43793;SDS011;29414;44.798;20.366;2022-10-15T02:49:44;11.23;;;8.73;;
43793;SDS011;29414;44.798;20.366;2022-10-15T02:53:44;23.37;;;8.93;;
43793;SDS011;29414;44.798;20.366;2022-10-15T02:57:45;11.40;;;9.03;;
43793;SDS011;29414;44.798;20.366;2022-10-15T03:01:45;13.93;;;9.17;;
43793;SDS011;29414;44.798;20.366;2022-10-15T03:05:45;14.53;;;8.90;;
43793;SDS011;29414;44.798;20.366;2022-10-15T03:09:45;15.80;;;8.58;;
43793;SDS011;29414;44.798;20.366;2022-10-15T03:13:46;11.13;;;7.60;;
43793;SDS011;29414;44.798;20.366;2022-10-15T03:17:46;9.47;;;7.37;;
43793;SDS011;29414;44.798;20.366;2022-10-15T03:21:46;12.37;;;8.77;;
43793;SDS011;29414;44.798;20.366;2022-10-15T03:25:46;12.10;;;8.23;;
43793;SDS011;29414;44.798;20.366;2022-10-15T03:29:47;10.13;;;7.20;;
43793;SDS011;29414;44.798;20.366;2022-10-15T03:33:47;10.17;;;8.07;;
43793;SDS011;29414;44.798;20.366;2022-10-15T03:37:47;11.87;;;8.37;;
43793;SDS011;29414;44.798;20.366;2022-10-15T03:41:48;10.77;;;7.07;;
43793;SDS011;29414;44.798;20.366;2022-10-15T03:45:51;12.93;;;7.37;;
43793;SDS011;29414;44.798;20.366;2022-10-15T03:49:51;9.17;;;7.47;;
43793;SDS011;29414;44.798;20.366;2022-10-15T03:53:52;12.00;;;7.00;;
43793;SDS011;29414;44.798;20.366;2022-10-15T03:57:52;12.80;;;8.00;;
43793;SDS011;29414;44.798;20.366;2022-10-15T04:01:53;10.93;;;7.67;;
43793;SDS011;29414;44.798;20.366;2022-10-15T04:05:53;9.80;;;7.54;;
43793;SDS011;29414;44.798;20.366;2022-10-15T04:09:53;12.30;;;7.07;;
43793;SDS011;29414;44.798;20.366;2022-10-15T04:13:53;13.67;;;8.00;;
43793;SDS011;29414;44.798;20.366;2022-10-15T04:17:54;8.00;;;6.70;;
43793;SDS011;29414;44.798;20.366;2022-10-15T04:21:55;11.03;;;7.63;;
43793;SDS011;29414;44.798;20.366;2022-10-15T04:25:57;13.90;;;8.03;;
43793;SDS011;29414;44.798;20.366;2022-10-15T04:29:58;10.83;;;7.07;;
43793;SDS011;29414;44.798;20.366;2022-10-15T04:33:58;11.03;;;6.93;;
43793;SDS011;29414;44.798;20.366;2022-10-15T04:37:58;14.07;;;7.80;;
43793;SDS011;29414;44.798;20.366;2022-10-15T04:41:59;10.83;;;6.50;;
43793;SDS011;29414;44.798;20.366;2022-10-15T04:45:59;9.23;;;6.67;;
43793;SDS011;29414;44.798;20.366;2022-10-15T04:50:00;11.23;;;7.30;;
43793;SDS011;29414;44.798;20.366;2022-10-15T04:54:01;11.33;;;7.90;;
43793;SDS011;29414;44.798;20.366;2022-10-15T04:58:01;9.53;;;7.37;;
43793;SDS011;29414;44.798;20.366;2022-10-15T05:02:01;17.93;;;7.97;;
43793;SDS011;29414;44.798;20.366;2022-10-15T05:06:05;13.50;;;6.97;;
43793;SDS011;29414;44.798;20.366;2022-10-15T05:10:06;12.93;;;7.27;;
43793;SDS011;29414;44.798;20.366;2022-10-15T05:14:07;13.07;;;7.57;;
43793;SDS011;29414;44.798;20.366;2022-10-15T05:18:08;10.67;;;7.27;;
43793;SDS011;29414;44.798;20.366;2022-10-15T05:22:08;12.00;;;7.48;;
43793;SDS011;29414;44.798;20.366;2022-10-15T05:26:13;8.17;;;6.40;;
43793;SDS011;29414;44.798;20.366;2022-10-15T05:30:13;9.63;;;6.57;;
43793;SDS011;29414;44.798;20.366;2022-10-15T05:34:13;12.13;;;7.60;;
43793;SDS011;29414;44.798;20.366;2022-10-15T05:38:14;14.37;;;7.00;;
43793;SDS011;29414;44.798;20.366;2022-10-15T05:42:14;11.63;;;7.20;;
43793;SDS011;29414;44.798;20.366;2022-10-15T05:46:14;12.63;;;7.73;;
43793;SDS011;29414;44.798;20.366;2022-10-15T05:50:14;14.57;;;7.23;;
43793;SDS011;29414;44.798;20.366;2022-10-15T05:54:15;11.20;;;6.60;;
43793;SDS011;29414;44.798;20.366;2022-10-15T05:58:15;14.20;;;7.87;;
43793;SDS011;29414;44.798;20.366;2022-10-15T06:02:15;11.13;;;7.60;;
43793;SDS011;29414;44.798;20.366;2022-10-15T06:06:25;11.13;;;7.00;;
43793;SDS011;29414;44.798;20.366;2022-10-15T06:10:25;15.18;;;7.95;;
43793;SDS011;29414;44.798;20.366;2022-10-15T06:14:27;11.43;;;6.97;;
43793;SDS011;29414;44.798;20.366;2022-10-15T06:18:29;10.77;;;7.10;;
43793;SDS011;29414;44.798;20.366;2022-10-15T06:22:29;7.17;;;6.27;;
43793;SDS011;29414;44.798;20.366;2022-10-15T06:26:30;14.20;;;7.33;;
43793;SDS011;29414;44.798;20.366;2022-10-15T06:30:30;8.32;;;6.78;;
43793;SDS011;29414;44.798;20.366;2022-10-15T06:34:30;11.73;;;6.83;;
43793;SDS011;29414;44.798;20.366;2022-10-15T06:38:31;7.95;;;6.68;;
43793;SDS011;29414;44.798;20.366;2022-10-15T06:42:31;12.60;;;7.03;;
43793;SDS011;29414;44.798;20.366;2022-10-15T06:46:31;9.48;;;7.43;;
43793;SDS011;29414;44.798;20.366;2022-10-15T06:50:32;10.80;;;6.70;;
43793;SDS011;29414;44.798;20.366;2022-10-15T06:54:33;12.40;;;6.70;;
43793;SDS011;29414;44.798;20.366;2022-10-15T06:58:33;13.88;;;7.05;;
43793;SDS011;29414;44.798;20.366;2022-10-15T07:02:34;10.27;;;6.57;;
43793;SDS011;29414;44.798;20.366;2022-10-15T07:06:35;7.10;;;5.70;;
43793;SDS011;29414;44.798;20.366;2022-10-15T07:10:35;8.55;;;6.25;;
43793;SDS011;29414;44.798;20.366;2022-10-15T07:14:36;11.93;;;7.45;;
43793;SDS011;29414;44.798;20.366;2022-10-15T07:18:36;14.75;;;5.93;;
43793;SDS011;29414;44.798;20.366;2022-10-15T07:22:37;8.40;;;5.22;;
43793;SDS011;29414;44.798;20.366;2022-10-15T07:26:37;11.08;;;5.86;;
43793;SDS011;29414;44.798;20.366;2022-10-15T07:30:37;8.70;;;5.38;;
43793;SDS011;29414;44.798;20.366;2022-10-15T07:34:37;7.47;;;4.90;;
43793;SDS011;29414;44.798;20.366;2022-10-15T07:38:38;11.57;;;5.30;;
43793;SDS011;29414;44.798;20.366;2022-10-15T07:42:41;5.97;;;4.50;;
43793;SDS011;29414;44.798;20.366;2022-10-15T07:46:42;11.90;;;5.13;;
43793;SDS011;29414;44.798;20.366;2022-10-15T07:50:42;8.10;;;4.78;;
43793;SDS011;29414;44.798;20.366;2022-10-15T07:54:42;7.47;;;5.03;;
43793;SDS011;29414;44.798;20.366;2022-10-15T07:58:43;9.05;;;4.80;;
43793;SDS011;29414;44.798;20.366;2022-10-15T08:02:50;7.95;;;4.55;;
43793;SDS011;29414;44.798;20.366;2022-10-15T08:06:50;5.97;;;4.82;;
43793;SDS011;29414;44.798;20.366;2022-10-15T08:10:52;7.40;;;5.03;;
43793;SDS011;29414;44.798;20.366;2022-10-15T08:14:52;8.57;;;5.05;;
43793;SDS011;29414;44.798;20.366;2022-10-15T08:18:52;8.88;;;5.43;;
43793;SDS011;29414;44.798;20.366;2022-10-15T08:22:52;6.50;;;4.43;;
43793;SDS011;29414;44.798;20.366;2022-10-15T08:26:53;29.55;;;5.70;;
43793;SDS011;29414;44.798;20.366;2022-10-15T08:30:53;10.55;;;5.38;;
43793;SDS011;29414;44.798;20.366;2022-10-15T08:34:54;10.02;;;4.80;;
43793;SDS011;29414;44.798;20.366;2022-10-15T08:38:54;9.70;;;5.15;;
43793;SDS011;29414;44.798;20.366;2022-10-15T08:42:55;8.38;;;5.15;;
43793;SDS011;29414;44.798;20.366;2022-10-15T08:47:01;6.88;;;4.80;;
43793;SDS011;29414;44.798;20.366;2022-10-15T08:51:08;7.78;;;5.00;;
43793;SDS011;29414;44.798;20.366;2022-10-15T08:55:19;7.13;;;5.25;;
43793;SDS011;29414;44.798;20.366;2022-10-15T09:07:39;14.32;;;5.18;;
43793;SDS011;29414;44.798;20.366;2022-10-15T09:16:04;6.38;;;5.32;;
43793;SDS011;29414;44.798;20.366;2022-10-15T09:20:15;5.85;;;4.68;;
43793;SDS011;29414;44.798;20.366;2022-10-15T09:24:18;6.15;;;5.20;;
43793;SDS011;29414;44.798;20.366;2022-10-15T09:28:19;14.07;;;4.75;;
43793;SDS011;29414;44.798;20.366;2022-10-15T09:32:27;8.10;;;4.43;;
43793;SDS011;29414;44.798;20.366;2022-10-15T09:36:39;8.95;;;5.05;;
43793;SDS011;29414;44.798;20.366;2022-10-15T09:45:01;10.93;;;5.60;;
43793;SDS011;29414;44.798;20.366;2022-10-15T09:49:05;6.95;;;5.45;;
43793;SDS011;29414;44.798;20.366;2022-10-15T09:57:16;8.60;;;4.95;;
43793;SDS011;29414;44.798;20.366;2022-10-15T10:01:21;6.18;;;4.60;;
43793;SDS011;29414;44.798;20.366;2022-10-15T10:05:29;8.77;;;5.03;;
43793;SDS011;29414;44.798;20.366;2022-10-15T10:09:31;8.15;;;4.70;;
43793;SDS011;29414;44.798;20.366;2022-10-15T10:17:35;7.30;;;4.55;;
43793;SDS011;29414;44.798;20.366;2022-10-15T10:21:35;8.00;;;4.38;;
43793;SDS011;29414;44.798;20.366;2022-10-15T10:25:38;6.88;;;4.78;;
43793;SDS011;29414;44.798;20.366;2022-10-15T10:29:39;8.65;;;4.07;;
43793;SDS011;29414;44.798;20.366;2022-10-15T10:33:45;5.45;;;4.22;;
43793;SDS011;29414;44.798;20.366;2022-10-15T10:37:49;9.27;;;4.75;;
43793;SDS011;29414;44.798;20.366;2022-10-15T10:41:50;7.28;;;4.70;;
43793;SDS011;29414;44.798;20.366;2022-10-15T10:46:04;6.15;;;5.03;;
43793;SDS011;29414;44.798;20.366;2022-10-15T10:50:24;10.23;;;5.55;;
43793;SDS011;29414;44.798;20.366;2022-10-15T10:54:25;9.30;;;4.28;;
43793;SDS011;29414;44.798;20.366;2022-10-15T10:58:28;10.00;;;4.72;;
43793;SDS011;29414;44.798;20.366;2022-10-15T11:02:31;6.22;;;5.15;;
43793;SDS011;29414;44.798;20.366;2022-10-15T11:18:55;9.74;;;5.40;;
43793;SDS011;29414;44.798;20.366;2022-10-15T11:23:02;7.07;;;5.70;;
43793;SDS011;29414;44.798;20.366;2022-10-15T11:27:15;4.70;;;4.28;;
43793;SDS011;29414;44.798;20.366;2022-10-15T11:55:43;7.75;;;4.03;;
43793;SDS011;29414;44.798;20.366;2022-10-15T12:04:09;4.20;;;3.80;;
43793;SDS011;29414;44.798;20.366;2022-10-15T12:08:10;7.23;;;3.93;;
43793;SDS011;29414;44.798;20.366;2022-10-15T12:16:34;4.82;;;3.92;;
43793;SDS011;29414;44.798;20.366;2022-10-15T12:20:36;10.93;;;4.40;;
43793;SDS011;29414;44.798;20.366;2022-10-15T12:28:36;6.03;;;4.30;;
43793;SDS011;29414;44.798;20.366;2022-10-15T12:32:49;5.78;;;3.78;;
43793;SDS011;29414;44.798;20.366;2022-10-15T12:36:58;11.10;;;4.53;;
43793;SDS011;29414;44.798;20.366;2022-10-15T12:41:03;6.93;;;3.67;;
43793;SDS011;29414;44.798;20.366;2022-10-15T12:45:05;10.15;;;4.53;;
43793;SDS011;29414;44.798;20.366;2022-10-15T13:05:41;4.93;;;3.47;;
43793;SDS011;29414;44.798;20.366;2022-10-15T13:09:41;11.20;;;4.68;;
43793;SDS011;29414;44.798;20.366;2022-10-15T13:13:41;5.32;;;4.05;;
43793;SDS011;29414;44.798;20.366;2022-10-15T13:17:42;6.97;;;4.75;;
43793;SDS011;29414;44.798;20.366;2022-10-15T13:21:50;7.38;;;4.88;;
43793;SDS011;29414;44.798;20.366;2022-10-15T13:25:50;12.52;;;5.57;;
43793;SDS011;29414;44.798;20.366;2022-10-15T13:33:58;6.00;;;3.92;;
43793;SDS011;29414;44.798;20.366;2022-10-15T13:38:00;8.40;;;4.50;;
43793;SDS011;29414;44.798;20.366;2022-10-15T13:42:13;5.88;;;4.20;;
43793;SDS011;29414;44.798;20.366;2022-10-15T13:46:14;18.33;;;5.00;;
43793;SDS011;29414;44.798;20.366;2022-10-15T13:54:27;11.02;;;7.68;;
43793;SDS011;29414;44.798;20.366;2022-10-15T13:58:29;6.78;;;4.18;;
43793;SDS011;29414;44.798;20.366;2022-10-15T14:02:30;14.18;;;4.03;;
43793;SDS011;29414;44.798;20.366;2022-10-15T14:06:31;6.07;;;3.83;;
43793;SDS011;29414;44.798;20.366;2022-10-15T14:10:32;7.50;;;3.80;;
43793;SDS011;29414;44.798;20.366;2022-10-15T14:18:34;6.82;;;3.78;;
43793;SDS011;29414;44.798;20.366;2022-10-15T14:22:34;4.25;;;3.85;;
43793;SDS011;29414;44.798;20.366;2022-10-15T14:26:35;8.27;;;3.97;;
43793;SDS011;29414;44.798;20.366;2022-10-15T14:30:35;10.05;;;4.30;;
43793;SDS011;29414;44.798;20.366;2022-10-15T14:34:37;5.00;;;3.47;;
43793;SDS011;29414;44.798;20.366;2022-10-15T14:38:38;5.90;;;4.13;;
43793;SDS011;29414;44.798;20.366;2022-10-15T14:46:39;5.13;;;3.50;;
43793;SDS011;29414;44.798;20.366;2022-10-15T14:50:41;5.60;;;3.15;;
43793;SDS011;29414;44.798;20.366;2022-10-15T14:59:01;4.05;;;3.30;;
43793;SDS011;29414;44.798;20.366;2022-10-15T15:03:03;4.47;;;3.17;;
43793;SDS011;29414;44.798;20.366;2022-10-15T15:07:15;5.18;;;3.88;;
43793;SDS011;29414;44.798;20.366;2022-10-15T15:11:19;5.25;;;3.60;;
43793;SDS011;29414;44.798;20.366;2022-10-15T15:15:21;5.15;;;3.90;;
43793;SDS011;29414;44.798;20.366;2022-10-15T15:19:21;6.95;;;4.35;;
43793;SDS011;29414;44.798;20.366;2022-10-15T15:23:23;5.75;;;4.43;;
43793;SDS011;29414;44.798;20.366;2022-10-15T15:27:25;5.32;;;3.67;;
43793;SDS011;29414;44.798;20.366;2022-10-15T15:31:26;11.98;;;4.30;;
43793;SDS011;29414;44.798;20.366;2022-10-15T15:35:35;7.47;;;4.97;;
43793;SDS011;29414;44.798;20.366;2022-10-15T15:39:38;7.88;;;4.90;;
43793;SDS011;29414;44.798;20.366;2022-10-15T15:43:38;9.75;;;4.45;;
43793;SDS011;29414;44.798;20.366;2022-10-15T15:47:38;7.15;;;4.00;;
43793;SDS011;29414;44.798;20.366;2022-10-15T15:51:39;7.92;;;4.84;;
43793;SDS011;29414;44.798;20.366;2022-10-15T15:55:39;8.20;;;4.25;;
43793;SDS011;29414;44.798;20.366;2022-10-15T15:59:40;9.13;;;5.40;;
43793;SDS011;29414;44.798;20.366;2022-10-15T16:03:40;7.53;;;5.65;;
43793;SDS011;29414;44.798;20.366;2022-10-15T16:07:41;6.93;;;5.50;;
43793;SDS011;29414;44.798;20.366;2022-10-15T16:11:41;12.30;;;5.45;;
43793;SDS011;29414;44.798;20.366;2022-10-15T16:15:42;8.07;;;4.55;;
43793;SDS011;29414;44.798;20.366;2022-10-15T16:19:42;8.57;;;5.30;;
43793;SDS011;29414;44.798;20.366;2022-10-15T16:23:42;8.57;;;5.30;;
43793;SDS011;29414;44.798;20.366;2022-10-15T16:27:43;10.68;;;5.50;;
43793;SDS011;29414;44.798;20.366;2022-10-15T16:31:47;6.40;;;4.60;;
43793;SDS011;29414;44.798;20.366;2022-10-15T16:35:51;8.88;;;5.45;;
43793;SDS011;29414;44.798;20.366;2022-10-15T16:39:52;7.70;;;4.32;;
43793;SDS011;29414;44.798;20.366;2022-10-15T16:43:52;8.50;;;4.68;;
43793;SDS011;29414;44.798;20.366;2022-10-15T16:47:53;7.07;;;4.68;;
43793;SDS011;29414;44.798;20.366;2022-10-15T16:51:53;6.57;;;4.15;;
43793;SDS011;29414;44.798;20.366;2022-10-15T16:55:58;8.93;;;4.22;;
43793;SDS011;29414;44.798;20.366;2022-10-15T16:59:58;7.78;;;4.15;;
43793;SDS011;29414;44.798;20.366;2022-10-15T17:03:59;7.30;;;4.80;;
43793;SDS011;29414;44.798;20.366;2022-10-15T17:07:59;8.85;;;4.15;;
43793;SDS011;29414;44.798;20.366;2022-10-15T17:12:00;7.72;;;4.10;;
43793;SDS011;29414;44.798;20.366;2022-10-15T17:16:10;8.73;;;4.43;;
43793;SDS011;29414;44.798;20.366;2022-10-15T17:20:11;5.35;;;4.55;;
43793;SDS011;29414;44.798;20.366;2022-10-15T17:24:12;7.72;;;4.32;;
43793;SDS011;29414;44.798;20.366;2022-10-15T17:28:12;6.95;;;4.85;;
43793;SDS011;29414;44.798;20.366;2022-10-15T17:32:12;9.40;;;4.54;;
43793;SDS011;29414;44.798;20.366;2022-10-15T17:36:16;8.48;;;3.80;;
43793;SDS011;29414;44.798;20.366;2022-10-15T17:40:17;5.15;;;4.05;;
43793;SDS011;29414;44.798;20.366;2022-10-15T17:44:17;6.88;;;4.22;;
43793;SDS011;29414;44.798;20.366;2022-10-15T17:48:17;8.93;;;4.45;;
43793;SDS011;29414;44.798;20.366;2022-10-15T17:52:18;6.44;;;4.20;;
43793;SDS011;29414;44.798;20.366;2022-10-15T17:56:28;5.70;;;4.05;;
43793;SDS011;29414;44.798;20.366;2022-10-15T18:00:28;4.57;;;3.72;;
43793;SDS011;29414;44.798;20.366;2022-10-15T18:04:29;5.55;;;3.28;;
43793;SDS011;29414;44.798;20.366;2022-10-15T18:08:29;7.88;;;4.05;;
43793;SDS011;29414;44.798;20.366;2022-10-15T18:12:29;8.95;;;4.20;;
43793;SDS011;29414;44.798;20.366;2022-10-15T18:16:30;7.47;;;4.55;;
43793;SDS011;29414;44.798;20.366;2022-10-15T18:20:31;6.20;;;3.85;;
43793;SDS011;29414;44.798;20.366;2022-10-15T18:24:31;8.77;;;4.30;;
43793;SDS011;29414;44.798;20.366;2022-10-15T18:28:32;7.78;;;3.78;;
43793;SDS011;29414;44.798;20.366;2022-10-15T18:32:32;8.38;;;3.75;;
43793;SDS011;29414;44.798;20.366;2022-10-15T18:36:32;6.40;;;3.83;;
43793;SDS011;29414;44.798;20.366;2022-10-15T18:40:33;6.53;;;4.38;;
43793;SDS011;29414;44.798;20.366;2022-10-15T18:44:34;7.75;;;4.93;;
43793;SDS011;29414;44.798;20.366;2022-10-15T18:48:35;9.80;;;4.38;;
43793;SDS011;29414;44.798;20.366;2022-10-15T18:52:35;6.63;;;4.13;;
43793;SDS011;29414;44.798;20.366;2022-10-15T18:56:36;6.98;;;4.44;;
43793;SDS011;29414;44.798;20.366;2022-10-15T19:00:36;7.32;;;4.90;;
43793;SDS011;29414;44.798;20.366;2022-10-15T19:04:36;7.78;;;4.85;;
43793;SDS011;29414;44.798;20.366;2022-10-15T19:08:37;8.15;;;4.97;;
43793;SDS011;29414;44.798;20.366;2022-10-15T19:12:37;8.27;;;5.18;;
43793;SDS011;29414;44.798;20.366;2022-10-15T19:16:38;9.55;;;5.10;;
43793;SDS011;29414;44.798;20.366;2022-10-15T19:20:38;10.52;;;5.32;;
43793;SDS011;29414;44.798;20.366;2022-10-15T19:24:39;8.23;;;4.35;;
43793;SDS011;29414;44.798;20.366;2022-10-15T19:28:39;7.90;;;4.47;;
43793;SDS011;29414;44.798;20.366;2022-10-15T19:32:40;8.90;;;4.53;;
43793;SDS011;29414;44.798;20.366;2022-10-15T19:36:41;6.68;;;4.50;;
43793;SDS011;29414;44.798;20.366;2022-10-15T19:40:42;8.25;;;5.43;;
43793;SDS011;29414;44.798;20.366;2022-10-15T19:44:42;7.57;;;4.93;;
43793;SDS011;29414;44.798;20.366;2022-10-15T19:48:43;6.18;;;4.43;;
43793;SDS011;29414;44.798;20.366;2022-10-15T19:52:43;5.30;;;4.18;;
43793;SDS011;29414;44.798;20.366;2022-10-15T19:56:43;7.28;;;4.05;;
43793;SDS011;29414;44.798;20.366;2022-10-15T20:00:47;12.45;;;4.43;;
43793;SDS011;29414;44.798;20.366;2022-10-15T20:04:47;8.68;;;5.43;;
43793;SDS011;29414;44.798;20.366;2022-10-15T20:08:47;7.22;;;4.20;;
43793;SDS011;29414;44.798;20.366;2022-10-15T20:12:50;5.90;;;4.60;;
43793;SDS011;29414;44.798;20.366;2022-10-15T20:16:50;8.30;;;4.10;;
43793;SDS011;29414;44.798;20.366;2022-10-15T20:20:51;7.30;;;5.20;;
43793;SDS011;29414;44.798;20.366;2022-10-15T20:24:51;7.97;;;4.40;;
43793;SDS011;29414;44.798;20.366;2022-10-15T20:28:51;6.68;;;4.45;;
43793;SDS011;29414;44.798;20.366;2022-10-15T20:32:52;6.40;;;4.00;;
43793;SDS011;29414;44.798;20.366;2022-10-15T20:36:52;11.07;;;7.68;;
43793;SDS011;29414;44.798;20.366;2022-10-15T20:40:53;7.97;;;7.15;;
43793;SDS011;29414;44.798;20.366;2022-10-15T20:44:53;11.23;;;6.13;;
43793;SDS011;29414;44.798;20.366;2022-10-15T20:48:54;5.63;;;4.28;;
43793;SDS011;29414;44.798;20.366;2022-10-15T20:52:55;11.02;;;5.25;;
43793;SDS011;29414;44.798;20.366;2022-10-15T20:56:56;7.68;;;4.80;;
43793;SDS011;29414;44.798;20.366;2022-10-15T21:00:56;5.22;;;4.28;;
43793;SDS011;29414;44.798;20.366;2022-10-15T21:04:57;6.80;;;4.60;;
43793;SDS011;29414;44.798;20.366;2022-10-15T21:08:57;6.43;;;4.65;;
43793;SDS011;29414;44.798;20.366;2022-10-15T21:12:57;6.97;;;4.05;;
43793;SDS011;29414;44.798;20.366;2022-10-15T21:16:58;9.88;;;4.22;;
43793;SDS011;29414;44.798;20.366;2022-10-15T21:21:05;9.85;;;4.25;;
43793;SDS011;29414;44.798;20.366;2022-10-15T21:25:05;5.78;;;4.25;;
43793;SDS011;29414;44.798;20.366;2022-10-15T21:29:06;4.30;;;3.90;;
43793;SDS011;29414;44.798;20.366;2022-10-15T21:37:12;5.15;;;3.92;;
43793;SDS011;29414;44.798;20.366;2022-10-15T21:41:12;12.52;;;4.90;;
43793;SDS011;29414;44.798;20.366;2022-10-15T21:45:12;7.45;;;4.32;;
43793;SDS011;29414;44.798;20.366;2022-10-15T21:49:13;8.38;;;4.15;;
43793;SDS011;29414;44.798;20.366;2022-10-15T21:53:13;5.03;;;3.35;;
43793;SDS011;29414;44.798;20.366;2022-10-15T21:57:13;5.68;;;3.50;;
43793;SDS011;29414;44.798;20.366;2022-10-15T22:01:17;11.35;;;3.60;;
43793;SDS011;29414;44.798;20.366;2022-10-15T22:05:19;4.35;;;3.40;;
43793;SDS011;29414;44.798;20.366;2022-10-15T22:09:19;4.32;;;2.97;;
43793;SDS011;29414;44.798;20.366;2022-10-15T22:13:20;5.70;;;3.15;;
43793;SDS011;29414;44.798;20.366;2022-10-15T22:17:20;8.23;;;3.42;;
43793;SDS011;29414;44.798;20.366;2022-10-15T22:21:22;3.40;;;2.60;;
43793;SDS011;29414;44.798;20.366;2022-10-15T22:25:23;5.50;;;3.17;;
43793;SDS011;29414;44.798;20.366;2022-10-15T22:29:24;7.97;;;2.90;;
43793;SDS011;29414;44.798;20.366;2022-10-15T22:33:25;5.47;;;3.05;;
43793;SDS011;29414;44.798;20.366;2022-10-15T22:37:25;4.20;;;2.80;;
43793;SDS011;29414;44.798;20.366;2022-10-15T22:41:28;7.18;;;3.17;;
43793;SDS011;29414;44.798;20.366;2022-10-15T22:45:29;6.20;;;2.83;;
43793;SDS011;29414;44.798;20.366;2022-10-15T22:49:29;5.80;;;3.13;;
43793;SDS011;29414;44.798;20.366;2022-10-15T22:53:30;7.56;;;3.04;;
43793;SDS011;29414;44.798;20.366;2022-10-15T22:57:30;6.00;;;3.00;;
43793;SDS011;29414;44.798;20.366;2022-10-15T23:01:31;4.70;;;2.97;;
43793;SDS011;29414;44.798;20.366;2022-10-15T23:05:31;6.75;;;3.17;;
43793;SDS011;29414;44.798;20.366;2022-10-15T23:09:31;5.20;;;3.25;;
43793;SDS011;29414;44.798;20.366;2022-10-15T23:13:32;4.57;;;3.17;;
43793;SDS011;29414;44.798;20.366;2022-10-15T23:17:32;6.80;;;3.00;;
43793;SDS011;29414;44.798;20.366;2022-10-15T23:21:33;4.82;;;3.58;;
43793;SDS011;29414;44.798;20.366;2022-10-15T23:25:37;2.95;;;2.50;;
43793;SDS011;29414;44.798;20.366;2022-10-15T23:29:37;5.22;;;2.90;;
43793;SDS011;29414;44.798;20.366;2022-10-15T23:33:38;4.03;;;2.72;;
43793;SDS011;29414;44.798;20.366;2022-10-15T23:37:39;6.72;;;3.13;;
43793;SDS011;29414;44.798;20.366;2022-10-15T23:41:39;3.13;;;2.78;;
43793;SDS011;29414;44.798;20.366;2022-10-15T23:45:42;4.47;;;2.88;;
43793;SDS011;29414;44.798;20.366;2022-10-15T23:49:42;4.72;;;2.85;;
43793;SDS011;29414;44.798;20.366;2022-10-15T23:53:43;8.85;;;2.92;;
43793;SDS011;29414;44.798;20.366;2022-10-15T23:57:43;6.20;;;3.05;;
